Metar Aviation Weather Data FACT Cape Town International

11°C Temp
8°C Dewpoint
82% Humidity
Temperature
3 KM/H
2 MPH
2 KTS
Calm
Due North

Wind Speed
Clear
Conditions
Pressure 1015 (hPa) - 29.97 (in)
Visibility 6.2 (mi) - 10.0 (km)

Current Conditions
FACT
Cape Town International
Metar :FACT 240200Z VRB02KT CAVOK 11/08 Q1015 NOSIG
Mon 24th September 04:00 am

Cape Town International
  Metar Aviation API Data Provided by https://www.checkwx.com/ PHP scripts by weather34.com ©2018